createdAt,value
2023-05-22T00:00:59.288Z,445.9231
2023-05-22T00:02:00.359Z,443.6923
2023-05-22T00:03:01.369Z,439.7692
2023-05-22T00:04:21.061Z,441.1538
2023-05-22T00:05:22.349Z,444.8571
2023-05-22T00:06:23.354Z,447.6923
2023-05-22T00:07:24.394Z,448.0000
2023-05-22T00:08:26.801Z,446.3077
2023-05-22T00:09:26.408Z,442.5385
2023-05-22T00:10:27.553Z,443.4615
2023-05-22T00:11:28.550Z,444.0000
2023-05-22T00:12:29.491Z,445.0769
2023-05-22T00:13:30.580Z,442.7692
2023-05-22T00:14:31.675Z,443.2308
2023-05-22T00:15:32.751Z,443.8462
2023-05-22T00:16:33.727Z,442.8462
2023-05-22T00:17:34.835Z,444.3846
2023-05-22T00:18:35.704Z,443.4615
2023-05-22T00:19:36.819Z,442.6154
2023-05-22T00:20:37.994Z,442.3846
2023-05-22T00:21:38.958Z,441.6923
2023-05-22T00:22:39.939Z,441.2308
2023-05-22T00:23:40.897Z,441.1538
2023-05-22T00:24:41.908Z,443.0000
2023-05-22T00:25:42.971Z,443.6923
2023-05-22T00:26:44.074Z,445.0769
2023-05-22T00:27:45.073Z,446.2308
2023-05-22T00:28:46.072Z,446.0000
2023-05-22T00:29:47.188Z,445.9231
2023-05-22T00:30:48.097Z,447.1538
2023-05-22T00:31:49.212Z,446.2308
2023-05-22T00:32:50.355Z,445.0769
2023-05-22T00:33:51.271Z,447.6923
2023-05-22T00:34:52.227Z,449.0769
2023-05-22T00:35:53.277Z,448.7692
2023-05-22T00:36:54.329Z,447.4615
2023-05-22T00:37:55.394Z,448.3846
2023-05-22T00:38:56.358Z,448.8462
2023-05-22T00:39:57.394Z,449.8462
2023-05-22T00:40:58.419Z,447.5385
2023-05-22T00:41:59.541Z,450.7692
2023-05-22T00:43:00.595Z,450.1538
2023-05-22T00:44:01.499Z,448.0769
2023-05-22T00:45:02.552Z,447.1538
2023-05-22T00:46:03.614Z,449.5385
2023-05-22T00:47:04.736Z,450.1538
2023-05-22T00:48:05.777Z,449.1538
2023-05-22T00:49:06.676Z,448.8462
2023-05-22T00:50:07.703Z,449.4615
2023-05-22T00:51:08.841Z,449.0769
2023-05-22T00:52:09.837Z,449.9231
2023-05-22T00:53:10.875Z,452.9231
2023-05-22T00:54:11.815Z,453.4615
2023-05-22T00:55:12.881Z,455.0769
2023-05-22T00:56:13.910Z,452.3077
2023-05-22T00:57:14.978Z,451.6923
2023-05-22T00:58:16.112Z,451.6154
2023-05-22T00:59:17.025Z,452.2308
2023-05-22T01:00:18.025Z,453.3077
2023-05-22T01:01:19.086Z,451.4615
2023-05-22T01:02:20.134Z,450.0769
2023-05-22T01:03:21.294Z,448.9231
2023-05-22T01:04:22.157Z,449.0769
2023-05-22T01:05:23.207Z,451.9231
2023-05-22T01:06:24.240Z,451.3846
2023-05-22T01:07:25.310Z,452.0769
2023-05-22T01:08:26.333Z,451.3846
2023-05-22T01:09:27.378Z,452.0769
2023-05-22T01:10:28.341Z,450.7692
2023-05-22T01:11:29.392Z,450.9231
2023-05-22T01:12:30.496Z,450.9231
2023-05-22T01:13:31.520Z,450.4615
2023-05-22T01:14:32.508Z,449.6154
2023-05-22T01:15:33.535Z,450.3846
2023-05-22T01:16:34.604Z,449.7692
2023-05-22T01:17:35.735Z,450.4615
2023-05-22T01:18:36.721Z,450.3077
2023-05-22T01:19:37.716Z,447.6923
2023-05-22T01:20:38.865Z,446.8462
2023-05-22T01:21:39.753Z,445.3846
2023-05-22T01:22:40.819Z,445.0769
2023-05-22T01:23:41.874Z,445.8462
2023-05-22T01:24:42.825Z,445.3077
2023-05-22T01:25:43.909Z,444.6154
2023-05-22T01:26:44.906Z,445.0000
2023-05-22T01:27:45.992Z,445.0000
2023-05-22T01:28:47.107Z,445.2308
2023-05-22T01:29:48.035Z,445.4615
2023-05-22T01:30:49.053Z,448.3846
2023-05-22T01:31:50.094Z,447.1538
2023-05-22T01:32:51.229Z,447.8462
2023-05-22T01:33:52.325Z,446.7692
2023-05-22T01:34:53.212Z,446.2308
2023-05-22T01:35:54.234Z,446.3077
2023-05-22T01:36:55.274Z,446.0769
2023-05-22T01:37:56.338Z,447.0769
2023-05-22T01:38:57.372Z,447.0769
2023-05-22T01:39:58.419Z,448.3846
2023-05-22T01:40:59.374Z,450.0769
2023-05-22T01:42:00.481Z,448.6923
2023-05-22T01:43:01.511Z,444.9231
2023-05-22T01:44:02.601Z,447.2308
2023-05-22T01:45:03.511Z,447.7692
2023-05-22T01:46:04.605Z,445.9231
2023-05-22T01:47:05.591Z,443.7692
2023-05-22T01:48:06.717Z,443.6923
2023-05-22T01:49:07.669Z,443.0769
2023-05-22T01:50:08.685Z,442.8462
2023-05-22T01:51:09.778Z,444.9231
2023-05-22T01:52:10.750Z,445.2308
2023-05-22T01:53:11.816Z,447.5385
2023-05-22T01:54:12.853Z,450.3077
2023-05-22T01:55:13.827Z,455.1538
2023-05-22T01:56:14.944Z,462.3077
2023-05-22T01:57:15.875Z,463.3846
2023-05-22T01:58:16.977Z,462.6923
2023-05-22T01:59:17.990Z,459.3846
2023-05-22T02:00:18.995Z,457.1538
2023-05-22T02:01:20.107Z,456.7692
2023-05-22T02:02:21.121Z,458.0000
2023-05-22T02:03:22.277Z,459.3077
2023-05-22T02:04:23.132Z,457.7692
2023-05-22T02:05:24.158Z,456.2308
2023-05-22T02:06:25.235Z,456.0769
2023-05-22T02:07:26.272Z,453.1538
2023-05-22T02:08:27.396Z,451.7692
2023-05-22T02:09:28.414Z,454.1538
2023-05-22T02:10:29.369Z,455.7692
2023-05-22T02:11:30.394Z,456.4615
2023-05-22T02:12:31.517Z,458.1538
2023-05-22T02:13:32.558Z,457.6154
2023-05-22T02:14:33.534Z,457.8462
2023-05-22T02:15:34.516Z,459.0000
2023-05-22T02:16:35.561Z,459.3077
2023-05-22T02:17:36.611Z,459.1538
2023-05-22T02:18:37.691Z,460.3846
2023-05-22T02:19:38.793Z,461.1538
2023-05-22T02:20:39.915Z,461.4615
2023-05-22T02:21:40.697Z,462.8462
2023-05-22T02:22:41.755Z,462.9231
2023-05-22T02:23:42.830Z,459.0769
2023-05-22T02:24:43.910Z,456.9231
2023-05-22T02:25:44.860Z,456.9231
2023-05-22T02:26:45.875Z,459.5385
2023-05-22T02:27:47.007Z,461.6154
2023-05-22T02:28:48.005Z,462.7692
2023-05-22T02:29:49.066Z,463.1538
2023-05-22T02:30:50.068Z,463.5385
2023-05-22T02:31:51.055Z,464.3077
2023-05-22T02:32:52.183Z,463.4615
2023-05-22T02:33:53.134Z,464.0769
2023-05-22T02:34:54.860Z,464.6154
2023-05-22T02:35:55.205Z,465.6154
2023-05-22T02:36:56.192Z,463.6154
2023-05-22T02:37:57.215Z,463.0769
2023-05-22T02:38:58.322Z,464.4615
2023-05-22T02:39:59.354Z,465.8462
2023-05-22T02:41:00.336Z,467.5385
2023-05-22T02:42:01.373Z,466.6154
2023-05-22T02:43:02.432Z,468.2308
2023-05-22T02:44:03.466Z,469.1538
2023-05-22T02:45:04.518Z,468.3846
2023-05-22T02:46:05.592Z,467.7692
2023-05-22T02:47:06.621Z,464.8462
2023-05-22T02:48:07.571Z,462.6154
2023-05-22T02:49:08.640Z,464.0769
2023-05-22T02:50:09.675Z,462.9231
2023-05-22T02:51:10.652Z,461.6154
2023-05-22T02:52:11.697Z,461.3846
2023-05-22T02:53:12.706Z,462.0769
2023-05-22T02:54:13.836Z,464.5385
2023-05-22T02:55:14.826Z,465.6923
2023-05-22T02:56:15.838Z,465.7692
2023-05-22T02:57:16.867Z,464.6154
2023-05-22T02:58:17.957Z,462.6923
2023-05-22T02:59:18.976Z,462.2308
2023-05-22T03:00:20.042Z,462.6923
2023-05-22T03:01:20.981Z,463.3846
2023-05-22T03:02:22.062Z,464.2308
2023-05-22T03:03:23.210Z,461.6923
2023-05-22T03:04:24.210Z,460.6154
2023-05-22T03:05:25.191Z,460.1538
2023-05-22T03:06:26.173Z,461.3846
2023-05-22T03:07:27.210Z,463.3077
2023-05-22T03:08:28.499Z,463.0769
2023-05-22T03:09:29.333Z,463.3077
2023-05-22T03:10:30.392Z,462.4615
2023-05-22T03:11:31.349Z,462.1538
2023-05-22T03:12:32.392Z,461.7692
2023-05-22T03:13:33.425Z,460.6154
2023-05-22T03:14:34.507Z,457.6154
2023-05-22T03:15:35.551Z,458.3846
2023-05-22T03:16:36.719Z,460.0769
2023-05-22T03:17:37.656Z,461.5385
2023-05-22T03:18:38.626Z,462.6154
2023-05-22T03:19:39.706Z,462.0000
2023-05-22T03:20:40.932Z,461.6923
2023-05-22T03:21:41.702Z,462.6154
2023-05-22T03:22:42.754Z,462.1538
2023-05-22T03:23:43.774Z,462.7692
2023-05-22T03:24:44.872Z,464.0769
2023-05-22T03:25:45.973Z,463.8462
2023-05-22T03:26:46.900Z,461.4615
2023-05-22T03:27:47.929Z,460.8462
2023-05-22T03:28:49.008Z,462.8462
2023-05-22T03:29:50.054Z,464.4615
2023-05-22T03:30:51.109Z,465.0000
2023-05-22T03:31:52.066Z,466.0769
2023-05-22T03:32:53.184Z,466.3846
2023-05-22T03:33:54.231Z,468.5385
2023-05-22T03:34:55.281Z,472.5385
2023-05-22T03:35:56.255Z,474.0000
2023-05-22T03:36:57.278Z,473.3846
2023-05-22T03:37:58.296Z,471.4615
2023-05-22T03:38:59.312Z,470.3077
2023-05-22T03:40:00.383Z,469.1538
2023-05-22T03:41:01.430Z,475.2308
2023-05-22T03:42:02.447Z,475.9231
2023-05-22T03:43:03.528Z,477.3846
2023-05-22T03:44:04.486Z,477.3846
2023-05-22T03:45:05.638Z,476.6923
2023-05-22T03:46:06.700Z,474.9231
2023-05-22T03:47:07.669Z,474.9231
2023-05-22T03:48:08.672Z,476.3077
2023-05-22T03:49:09.747Z,475.4615
2023-05-22T03:50:10.740Z,476.5385
2023-05-22T03:51:11.805Z,476.5385
2023-05-22T03:52:12.836Z,474.2308
2023-05-22T03:53:13.795Z,472.1538
2023-05-22T03:54:14.816Z,472.2308
2023-05-22T03:55:15.958Z,471.5385
2023-05-22T03:56:16.979Z,471.8462
2023-05-22T03:57:17.984Z,472.5385
2023-05-22T03:58:19.029Z,467.6154
2023-05-22T03:59:19.994Z,465.3846
2023-05-22T04:00:21.097Z,463.6923
2023-05-22T04:01:22.074Z,462.2308
2023-05-22T04:02:23.197Z,458.0769
2023-05-22T04:03:24.162Z,453.4615
2023-05-22T04:04:25.132Z,451.9231
2023-05-22T04:05:26.327Z,451.3077
2023-05-22T04:06:27.255Z,452.9231
2023-05-22T04:07:28.253Z,454.1538
2023-05-22T04:08:29.268Z,454.6154
2023-05-22T04:09:30.329Z,454.0769
2023-05-22T04:10:31.414Z,455.3846
2023-05-22T04:11:32.448Z,458.0000
2023-05-22T04:12:33.388Z,459.6154
2023-05-22T04:13:34.533Z,457.6923
2023-05-22T04:14:35.474Z,457.8462
2023-05-22T04:15:36.717Z,455.7692
2023-05-22T04:16:37.576Z,452.6154
2023-05-22T04:17:38.599Z,453.2308
2023-05-22T04:18:39.584Z,453.9231
2023-05-22T04:19:40.675Z,456.9231
2023-05-22T04:20:41.917Z,458.3846
2023-05-22T04:21:42.831Z,455.4615
2023-05-22T04:22:43.750Z,455.0769
2023-05-22T04:23:44.777Z,455.3846
2023-05-22T04:24:45.785Z,455.9231
2023-05-22T04:25:46.891Z,458.8462
2023-05-22T04:26:47.970Z,461.5385
2023-05-22T04:27:48.919Z,467.1538
2023-05-22T04:28:49.960Z,465.3077
2023-05-22T04:29:51.122Z,462.8462
2023-05-22T04:30:52.127Z,462.4615
2023-05-22T04:31:53.153Z,457.9231
2023-05-22T04:32:54.189Z,457.9231
2023-05-22T04:33:55.188Z,457.3077
2023-05-22T04:34:56.204Z,458.1538
2023-05-22T04:35:57.278Z,459.4615
2023-05-22T04:36:58.305Z,457.1538
2023-05-22T04:37:59.259Z,456.0000
2023-05-22T04:39:00.351Z,458.3077
2023-05-22T04:40:01.432Z,458.0000
2023-05-22T04:41:02.491Z,457.3077
2023-05-22T04:42:03.474Z,456.7692
2023-05-22T04:43:04.433Z,457.5385
2023-05-22T04:44:05.486Z,459.1538
2023-05-22T04:45:06.511Z,465.4615
2023-05-22T04:46:07.728Z,466.9231
2023-05-22T04:47:08.638Z,465.6923
2023-05-22T04:48:09.633Z,463.9231
2023-05-22T04:49:10.733Z,463.5385
2023-05-22T04:50:11.715Z,466.6154
2023-05-22T04:51:12.806Z,465.1538
2023-05-22T04:52:13.812Z,466.8462
2023-05-22T04:53:14.801Z,466.4615
2023-05-22T04:54:15.830Z,466.6154
2023-05-22T04:55:16.890Z,469.3846
2023-05-22T04:56:31.734Z,471.9231
2023-05-22T04:57:19.036Z,474.2308
2023-05-22T04:58:19.956Z,478.0000
2023-05-22T04:59:20.997Z,478.4615
2023-05-22T05:00:22.117Z,478.6154
2023-05-22T05:01:23.226Z,479.7692
2023-05-22T05:02:24.216Z,480.9231
2023-05-22T05:03:25.170Z,482.0769
2023-05-22T05:04:26.168Z,482.9231
2023-05-22T05:05:27.237Z,482.2308
2023-05-22T05:06:28.283Z,482.1538
2023-05-22T05:07:29.378Z,482.9231
2023-05-22T05:08:30.349Z,482.4615
2023-05-22T05:09:31.352Z,482.2308
2023-05-22T05:10:32.440Z,483.7692
2023-05-22T05:11:33.512Z,483.3077
2023-05-22T05:12:34.555Z,482.0000
2023-05-22T05:13:35.496Z,480.2308
2023-05-22T05:14:36.486Z,473.6154
2023-05-22T05:15:37.547Z,474.2308
2023-05-22T05:16:38.737Z,473.4615
2023-05-22T05:17:39.744Z,472.2308
2023-05-22T05:18:40.657Z,473.5385
2023-05-22T05:19:41.814Z,472.2308
2023-05-22T05:20:42.693Z,471.1538
2023-05-22T05:21:43.804Z,472.4615
2023-05-22T05:22:44.915Z,473.4615
2023-05-22T05:23:45.830Z,474.0000
2023-05-22T05:24:46.915Z,469.2308
2023-05-22T05:25:47.919Z,471.1538
2023-05-22T05:26:48.987Z,474.0000
2023-05-22T05:27:50.028Z,473.2308
2023-05-22T05:28:51.050Z,477.9231
2023-05-22T05:29:52.025Z,478.0000
2023-05-22T05:30:53.091Z,476.0769
2023-05-22T05:31:54.164Z,477.2308
2023-05-22T05:32:55.250Z,480.6923
2023-05-22T05:33:56.189Z,478.6154
2023-05-22T05:34:57.194Z,477.6154
2023-05-22T05:35:58.306Z,476.8462
2023-05-22T05:36:59.315Z,476.8462
2023-05-22T05:38:00.336Z,482.3846
2023-05-22T05:39:01.336Z,482.4615
2023-05-22T05:40:02.362Z,481.8462
2023-05-22T05:41:03.445Z,479.7692
2023-05-22T05:42:04.589Z,479.9231
2023-05-22T05:43:06.642Z,478.3077
2023-05-22T05:44:06.550Z,474.3077
2023-05-22T05:45:07.555Z,473.3077
2023-05-22T05:46:08.624Z,471.9231
2023-05-22T05:47:09.677Z,470.7692
2023-05-22T05:48:10.736Z,469.0000
2023-05-22T05:49:11.700Z,466.5385
2023-05-22T05:50:12.786Z,463.8462
2023-05-22T05:51:13.742Z,466.8462
2023-05-22T05:52:14.832Z,467.9231
2023-05-22T05:53:15.962Z,466.8462
2023-05-22T05:54:16.880Z,463.8462
2023-05-22T05:55:17.899Z,460.8462
2023-05-22T05:56:18.999Z,456.8462
2023-05-22T05:57:20.065Z,457.2308
2023-05-22T05:58:21.039Z,457.8462
2023-05-22T05:59:22.052Z,458.0000
2023-05-22T06:00:23.069Z,462.0000
2023-05-22T06:01:24.204Z,456.0769
2023-05-22T06:02:25.264Z,455.4615
2023-05-22T06:03:26.351Z,457.8462
2023-05-22T06:04:27.225Z,461.3077
2023-05-22T06:05:28.349Z,454.7692
2023-05-22T06:06:29.359Z,455.2308
2023-05-22T06:07:30.482Z,455.6154
2023-05-22T06:08:31.508Z,452.0000
2023-05-22T06:09:32.572Z,453.9231
2023-05-22T06:10:33.562Z,458.0000
2023-05-22T06:11:34.549Z,457.6923
2023-05-22T06:12:35.621Z,456.5385
2023-05-22T06:13:36.693Z,457.0000
2023-05-22T06:14:37.691Z,461.6154
2023-05-22T06:15:38.685Z,463.3846
2023-05-22T06:16:39.754Z,463.3077
2023-05-22T06:17:40.792Z,459.4615
2023-05-22T06:18:41.845Z,459.4615
2023-05-22T06:19:42.806Z,458.8462
2023-05-22T06:20:43.872Z,459.3846
2023-05-22T06:21:44.872Z,455.4615
2023-05-22T06:22:45.940Z,453.0769
2023-05-22T06:23:46.991Z,453.4615
2023-05-22T06:24:47.990Z,456.5385
2023-05-22T06:25:49.005Z,456.0000
2023-05-22T06:26:50.246Z,458.6154
2023-05-22T06:27:51.109Z,457.6923
2023-05-22T06:28:52.185Z,458.9231
2023-05-22T06:29:53.111Z,456.6923
2023-05-22T06:30:54.174Z,446.6154
2023-05-22T06:31:55.259Z,448.0000
2023-05-22T06:32:56.383Z,447.1538
2023-05-22T06:33:57.412Z,451.5385
2023-05-22T06:34:58.287Z,450.8462
2023-05-22T06:35:59.312Z,447.5385
2023-05-22T06:37:00.353Z,449.3846
2023-05-22T06:38:01.433Z,451.9231
2023-05-22T06:39:02.464Z,444.4615
2023-05-22T06:40:03.476Z,446.0000
2023-05-22T06:41:04.479Z,449.0769
2023-05-22T06:42:05.495Z,448.6154
2023-05-22T06:43:06.657Z,451.0769
2023-05-22T06:44:07.590Z,449.7692
2023-05-22T06:45:08.682Z,449.0000
2023-05-22T06:46:09.695Z,450.5385
2023-05-22T06:47:10.715Z,442.0000
2023-05-22T06:48:11.808Z,442.6923
2023-05-22T06:49:12.839Z,446.2308
2023-05-22T06:50:13.762Z,448.0769
2023-05-22T06:51:14.865Z,444.0769
2023-05-22T06:52:15.837Z,441.2308
2023-05-22T06:53:16.949Z,445.6154
2023-05-22T06:54:17.951Z,449.6923
2023-05-22T06:55:18.975Z,448.3846
2023-05-22T06:56:19.993Z,443.0000
2023-05-22T06:57:21.035Z,439.3077
2023-05-22T06:58:22.141Z,439.3846
2023-05-22T06:59:23.206Z,439.3077
2023-05-22T07:00:24.149Z,442.5385
2023-05-22T07:01:25.226Z,451.0000
2023-05-22T07:02:26.292Z,455.0000
2023-05-22T07:03:27.328Z,454.1538
2023-05-22T07:04:28.397Z,451.0769
2023-05-22T07:05:29.337Z,454.2308
2023-05-22T07:06:30.370Z,455.3077
2023-05-22T07:07:31.399Z,449.6923
2023-05-22T07:08:32.488Z,442.0000
2023-05-22T07:09:33.487Z,443.0769
2023-05-22T07:10:34.513Z,442.1538
2023-05-22T07:11:35.542Z,442.6154
2023-05-22T07:12:36.618Z,437.9231
2023-05-22T07:13:37.725Z,442.1538
2023-05-22T07:14:38.692Z,456.1538
2023-05-22T07:15:39.687Z,453.3846
2023-05-22T07:16:40.831Z,453.0769
2023-05-22T07:17:41.868Z,455.7692
2023-05-22T07:18:42.837Z,457.9231
2023-05-22T07:19:43.860Z,454.4615
2023-05-22T07:20:44.895Z,452.3077
2023-05-22T07:21:45.965Z,452.6154
2023-05-22T07:22:46.917Z,449.9231
2023-05-22T07:23:48.012Z,445.7692
2023-05-22T07:24:49.052Z,445.6923
2023-05-22T07:25:50.043Z,445.6923
2023-05-22T07:26:51.128Z,445.4615
2023-05-22T07:27:52.149Z,442.1538
2023-05-22T07:28:53.179Z,449.1538
2023-05-22T07:29:54.210Z,452.1538
2023-05-22T07:30:55.174Z,450.0769
2023-05-22T07:31:56.281Z,448.7692
2023-05-22T07:32:57.355Z,448.6923
2023-05-22T07:33:58.377Z,450.1538
2023-05-22T07:34:59.375Z,449.1538
2023-05-22T07:36:00.360Z,448.5385
2023-05-22T07:37:01.404Z,444.3846
2023-05-22T07:38:02.398Z,446.5385
2023-05-22T07:39:03.537Z,452.7692
2023-05-22T07:40:04.504Z,447.3077
2023-05-22T07:41:05.550Z,447.0769
2023-05-22T07:42:06.601Z,446.8462
2023-05-22T07:43:07.638Z,440.6923
2023-05-22T07:44:08.784Z,440.1538
2023-05-22T07:45:09.754Z,440.2308
2023-05-22T07:46:10.761Z,438.9231
2023-05-22T07:47:11.831Z,444.4615
2023-05-22T07:48:12.799Z,443.5385
2023-05-22T07:49:13.882Z,443.8462
2023-05-22T07:50:14.952Z,445.6154
2023-05-22T07:51:15.888Z,442.5385
2023-05-22T07:52:16.920Z,437.2308
2023-05-22T07:53:18.007Z,438.0000
2023-05-22T07:54:19.095Z,440.5385
2023-05-22T07:55:20.054Z,441.3846
2023-05-22T07:56:21.024Z,438.7692
2023-05-22T07:57:22.057Z,435.4615
2023-05-22T07:58:23.263Z,430.7692
2023-05-22T07:59:24.220Z,429.0000
2023-05-22T08:00:25.313Z,436.0000
2023-05-22T08:01:26.231Z,439.6154
2023-05-22T08:02:27.397Z,442.2308
2023-05-22T08:03:28.498Z,437.7692
2023-05-22T08:04:29.584Z,437.3846
2023-05-22T08:05:30.427Z,438.6923
2023-05-22T08:06:31.409Z,440.9231
2023-05-22T08:07:32.388Z,435.0000
2023-05-22T08:08:33.475Z,434.3077
2023-05-22T08:09:34.568Z,432.9231
2023-05-22T08:10:52.053Z,430.5385
2023-05-22T08:11:38.413Z,429.2308
2023-05-22T08:12:37.718Z,425.7692
2023-05-22T08:13:38.592Z,424.4615
2023-05-22T08:14:39.776Z,427.4615
2023-05-22T08:15:40.725Z,427.7692
2023-05-22T08:16:41.724Z,428.6923
2023-05-22T08:17:42.724Z,428.8462
2023-05-22T08:18:43.833Z,427.4615
2023-05-22T08:19:44.958Z,423.5385
2023-05-22T08:20:45.868Z,422.8462
2023-05-22T08:21:46.878Z,422.0000
2023-05-22T08:22:47.944Z,421.0769
2023-05-22T08:23:48.939Z,419.2308
2023-05-22T08:24:50.064Z,427.9231
2023-05-22T08:25:51.106Z,430.3846
2023-05-22T08:26:52.100Z,422.0769
2023-05-22T08:27:53.073Z,417.2308
2023-05-22T08:28:54.107Z,419.2308
2023-05-22T08:29:55.248Z,419.3846
2023-05-22T08:30:56.281Z,421.0769
2023-05-22T08:31:57.286Z,422.0000
2023-05-22T08:32:58.365Z,421.3077
2023-05-22T08:33:59.348Z,414.4615
2023-05-22T08:35:00.393Z,417.2308
2023-05-22T08:36:01.374Z,422.4615
2023-05-22T08:37:02.443Z,422.0769
2023-05-22T08:38:03.401Z,420.1538
2023-05-22T08:39:04.451Z,420.6154
2023-05-22T08:40:05.606Z,419.4615
2023-05-22T08:41:06.558Z,419.9231
2023-05-22T08:42:07.511Z,421.6923
2023-05-22T08:43:08.574Z,424.0000
2023-05-22T08:44:09.713Z,431.2308
2023-05-22T08:45:10.657Z,422.0769
2023-05-22T08:46:11.740Z,421.0000
2023-05-22T08:47:12.770Z,420.3077
2023-05-22T08:48:13.799Z,420.5385
2023-05-22T08:49:14.770Z,424.6154
2023-05-22T08:50:15.880Z,423.8462
2023-05-22T08:51:16.890Z,424.5385
2023-05-22T08:52:17.924Z,424.6154
2023-05-22T08:53:18.949Z,418.3077
2023-05-22T08:54:19.993Z,419.1538
2023-05-22T08:55:21.048Z,417.4615
2023-05-22T08:56:22.150Z,418.8462
2023-05-22T08:57:23.059Z,420.8462
2023-05-22T08:58:24.144Z,418.5385
2023-05-22T08:59:25.185Z,419.2308
2023-05-22T09:00:26.305Z,420.1538
2023-05-22T09:01:27.333Z,420.6923
2023-05-22T09:02:28.287Z,423.6923
2023-05-22T09:03:29.388Z,424.4615
2023-05-22T09:04:30.353Z,423.2308
2023-05-22T09:05:31.399Z,422.4615
2023-05-22T09:06:32.419Z,423.5385
2023-05-22T09:07:33.463Z,427.4615
2023-05-22T09:08:34.522Z,424.5385
2023-05-22T09:09:35.487Z,416.0000
2023-05-22T09:10:36.644Z,420.2308
2023-05-22T09:11:37.651Z,422.2308
2023-05-22T09:12:38.589Z,423.0000
2023-05-22T09:13:39.630Z,425.6154
2023-05-22T09:14:40.617Z,421.2308
2023-05-22T09:15:41.763Z,423.2308
2023-05-22T09:16:42.813Z,421.7692
2023-05-22T09:17:43.822Z,418.3846
2023-05-22T09:18:44.934Z,419.9231
2023-05-22T09:19:45.907Z,422.9231
2023-05-22T09:20:46.907Z,426.0000
2023-05-22T09:21:48.116Z,427.6154
2023-05-22T09:22:48.891Z,429.0769
2023-05-22T09:23:49.946Z,428.6923
2023-05-22T09:24:51.007Z,419.0769
2023-05-22T09:25:52.076Z,418.6923
2023-05-22T09:26:53.132Z,420.8462
2023-05-22T09:27:54.171Z,421.8462
2023-05-22T09:28:55.209Z,423.6923
2023-05-22T09:29:56.220Z,425.5385
2023-05-22T09:30:57.264Z,426.6923
2023-05-22T09:31:58.350Z,428.8462
2023-05-22T09:32:59.317Z,429.4615
2023-05-22T09:34:00.282Z,428.4615
2023-05-22T09:35:01.328Z,433.3846
2023-05-22T09:36:02.430Z,427.8462
2023-05-22T09:37:03.441Z,428.5385
2023-05-22T09:38:04.411Z,428.0769
2023-05-22T09:39:05.434Z,431.7692
2023-05-22T09:40:06.481Z,432.3077
2023-05-22T09:41:07.633Z,424.0769
2023-05-22T09:42:08.582Z,421.8462
2023-05-22T09:43:09.535Z,421.0769
2023-05-22T09:44:10.616Z,421.7692
2023-05-22T09:45:11.645Z,423.2308
2023-05-22T09:46:12.784Z,419.8462
2023-05-22T09:47:13.770Z,418.0769
2023-05-22T09:48:14.735Z,420.9231
2023-05-22T09:49:17.054Z,426.3077
2023-05-22T09:50:16.822Z,434.1538
2023-05-22T09:51:17.884Z,422.2308
2023-05-22T09:52:18.954Z,418.0769
2023-05-22T09:53:19.964Z,418.2308
2023-05-22T09:54:20.926Z,421.7692
2023-05-22T09:55:21.932Z,424.6923
2023-05-22T09:56:34.865Z,424.1538
2023-05-22T09:57:24.097Z,420.8462
2023-05-22T09:58:25.018Z,419.9231
2023-05-22T09:59:26.098Z,419.5385
2023-05-22T10:00:27.093Z,422.6923
2023-05-22T10:01:28.294Z,413.7692
2023-05-22T10:02:29.308Z,411.3846
2023-05-22T10:03:30.385Z,417.3077
2023-05-22T10:04:31.348Z,425.1538
2023-05-22T10:05:32.274Z,427.2308
2023-05-22T10:06:33.454Z,430.3077
2023-05-22T10:07:34.464Z,430.3846
2023-05-22T10:08:35.445Z,432.3077
2023-05-22T10:09:36.562Z,432.6923
2023-05-22T10:10:37.554Z,430.6154
2023-05-22T10:11:38.637Z,424.3846
2023-05-22T10:12:39.605Z,407.9231
2023-05-22T10:13:40.613Z,410.3846
2023-05-22T10:14:41.605Z,412.3077
2023-05-22T10:15:42.756Z,414.0769
2023-05-22T10:16:43.771Z,417.0769
2023-05-22T10:17:44.893Z,417.3077
2023-05-22T10:18:45.796Z,415.3077
2023-05-22T10:19:47.004Z,403.7692
2023-05-22T10:20:47.847Z,410.0000
2023-05-22T10:21:48.975Z,411.5385
2023-05-22T10:22:49.973Z,416.3846
2023-05-22T10:23:51.055Z,419.2308
2023-05-22T10:24:51.992Z,417.3846
2023-05-22T10:25:53.123Z,417.9231
2023-05-22T10:26:54.130Z,418.8462
2023-05-22T10:27:55.158Z,420.0000
2023-05-22T10:28:56.156Z,422.2308
2023-05-22T10:29:57.168Z,426.1538
2023-05-22T10:30:58.325Z,426.6154
2023-05-22T10:31:59.317Z,426.0000
2023-05-22T10:33:00.449Z,421.9231
2023-05-22T10:34:01.426Z,421.7692
2023-05-22T10:35:02.355Z,423.3846
2023-05-22T10:36:03.405Z,424.6154
2023-05-22T10:37:16.590Z,425.5385
2023-05-22T10:38:05.522Z,426.5385
2023-05-22T10:39:06.472Z,425.6154
2023-05-22T10:40:07.546Z,426.5385
2023-05-22T10:41:08.565Z,427.7692
2023-05-22T10:42:09.687Z,427.7692
2023-05-22T10:43:10.703Z,424.9231
2023-05-22T10:44:11.754Z,423.0769
2023-05-22T10:45:12.742Z,422.0000
2023-05-22T10:46:13.937Z,419.6923
2023-05-22T10:47:14.866Z,418.0000
2023-05-22T10:48:15.878Z,415.9231
2023-05-22T10:49:16.866Z,414.8462
2023-05-22T10:50:17.969Z,415.4615
2023-05-22T10:51:18.912Z,420.1538
2023-05-22T10:52:20.046Z,420.8462
2023-05-22T10:53:21.070Z,420.8462
2023-05-22T10:54:22.041Z,419.0769
2023-05-22T10:55:23.098Z,419.7692
2023-05-22T10:56:25.766Z,420.4615
2023-05-22T10:57:25.195Z,421.7692
2023-05-22T10:58:26.288Z,421.8462
2023-05-22T10:59:27.261Z,420.9231
2023-05-22T11:00:28.298Z,421.6923
2023-05-22T11:01:29.318Z,420.8462
2023-05-22T11:02:30.495Z,422.3846
2023-05-22T11:03:31.421Z,422.2308
2023-05-22T11:04:32.505Z,421.3846
2023-05-22T11:05:33.452Z,419.6923
2023-05-22T11:06:34.475Z,418.4615
2023-05-22T11:07:35.524Z,415.0769
2023-05-22T11:08:36.591Z,414.4615
2023-05-22T11:09:37.636Z,414.1538
2023-05-22T11:10:38.730Z,411.9231
2023-05-22T11:11:39.681Z,415.3846
2023-05-22T11:12:40.764Z,416.6154
2023-05-22T11:13:41.743Z,419.9231
2023-05-22T11:14:42.753Z,419.5385
2023-05-22T11:15:43.796Z,420.8462
2023-05-22T11:16:44.996Z,422.8462
2023-05-22T11:17:45.941Z,420.3846
2023-05-22T11:18:47.325Z,419.1538
2023-05-22T11:19:47.965Z,417.7692
2023-05-22T11:20:49.000Z,419.8462
2023-05-22T11:21:50.001Z,419.0769
2023-05-22T11:22:51.088Z,419.3077
2023-05-22T11:23:52.098Z,417.1538
2023-05-22T11:24:53.103Z,415.2308
2023-05-22T11:25:54.142Z,417.5385
2023-05-22T11:26:55.196Z,420.3846
2023-05-22T11:27:56.412Z,417.0769
2023-05-22T11:28:57.423Z,416.3846
2023-05-22T11:29:58.261Z,417.7692
2023-05-22T11:31:01.927Z,417.2308
2023-05-22T11:32:00.422Z,414.7692
2023-05-22T11:33:01.505Z,417.6923
2023-05-22T11:34:02.579Z,422.3077
2023-05-22T11:35:03.491Z,425.8462
2023-05-22T11:36:04.526Z,425.3077
2023-05-22T11:37:05.638Z,430.1538
2023-05-22T11:38:06.623Z,445.0000
2023-05-22T11:39:07.662Z,440.6154
2023-05-22T11:40:08.649Z,435.2308
2023-05-22T11:41:09.773Z,435.4615
2023-05-22T11:42:10.735Z,432.0769
2023-05-22T11:43:11.814Z,428.3077
2023-05-22T11:44:12.869Z,427.5385
2023-05-22T11:45:13.857Z,424.6154
2023-05-22T11:46:14.910Z,422.6154
2023-05-22T11:47:15.990Z,425.3077
2023-05-22T11:48:17.119Z,426.0000
2023-05-22T11:49:18.099Z,423.7692
2023-05-22T11:51:20.080Z,425.5385
2023-05-22T11:52:21.188Z,427.0000
2023-05-22T11:53:22.246Z,427.4615
2023-05-22T11:54:23.246Z,429.0769
2023-05-22T11:55:24.215Z,430.3077
2023-05-22T11:56:25.352Z,429.7692
2023-05-22T11:57:26.324Z,426.3077
2023-05-22T11:58:27.374Z,409.7692